< < Back
Terminal Aerodrome Forecast


Current Version              Previous Versions:   1  2  3  4  5  6  7  8  9  

Terminal Aerodrome Forecast

415
FTUS44 KOHX 202100 AAB
TAFBNA
TAF AMD
KBNA 202103Z 2021/2118 27010G20KT P6SM BKN060
     FM210600 24005KT P6SM SCT050=



Latest METAR

054
SAUS70 KWBC 210300 RRA
MTRBNA
METAR KBNA 210253Z 19004KT 10SM CLR 11/06 A2988 RMK AO2 SLP116 T01060056
51028


USA.gov is the U.S. government's official web portal to all federal, state and local government web resources and services.